sensor_id;sensor_type;location;lat;lon;timestamp;pressure;altitude;pressure_sealevel;temperature;humidity
28310;BME280;15571;50.974;13.936;2023-06-24T00:00:07;100777.00;;;17.46;100.00
28310;BME280;15571;50.974;13.936;2023-06-24T00:03:11;100775.97;;;17.52;100.00
28310;BME280;15571;50.974;13.936;2023-06-24T00:06:19;100774.13;;;17.55;100.00
28310;BME280;15571;50.974;13.936;2023-06-24T00:09:21;100782.97;;;17.54;100.00
28310;BME280;15571;50.974;13.936;2023-06-24T00:12:23;100784.63;;;17.58;100.00
28310;BME280;15571;50.974;13.936;2023-06-24T00:15:25;100787.88;;;17.70;100.00
28310;BME280;15571;50.974;13.936;2023-06-24T00:18:27;100787.81;;;17.71;100.00
28310;BME280;15571;50.974;13.936;2023-06-24T00:21:32;100792.41;;;17.65;100.00
28310;BME280;15571;50.974;13.936;2023-06-24T00:24:35;100787.03;;;17.68;100.00
28310;BME280;15571;50.974;13.936;2023-06-24T00:27:42;100776.53;;;17.65;100.00
28310;BME280;15571;50.974;13.936;2023-06-24T00:30:47;100773.06;;;17.63;100.00
28310;BME280;15571;50.974;13.936;2023-06-24T00:33:50;100771.94;;;17.71;100.00
28310;BME280;15571;50.974;13.936;2023-06-24T00:36:54;100765.03;;;17.66;100.00
28310;BME280;15571;50.974;13.936;2023-06-24T00:39:56;100757.00;;;17.69;100.00
28310;BME280;15571;50.974;13.936;2023-06-24T00:43:01;100751.72;;;17.69;100.00
28310;BME280;15571;50.974;13.936;2023-06-24T00:46:03;100753.41;;;17.71;100.00
28310;BME280;15571;50.974;13.936;2023-06-24T00:49:07;100741.00;;;17.73;100.00
28310;BME280;15571;50.974;13.936;2023-06-24T00:52:12;100748.09;;;17.73;100.00
28310;BME280;15571;50.974;13.936;2023-06-24T00:55:16;100745.28;;;17.79;100.00
28310;BME280;15571;50.974;13.936;2023-06-24T00:58:21;100748.78;;;17.80;100.00
28310;BME280;15571;50.974;13.936;2023-06-24T01:01:25;100746.09;;;17.81;100.00
28310;BME280;15571;50.974;13.936;2023-06-24T01:04:30;100739.00;;;17.82;100.00
28310;BME280;15571;50.974;13.936;2023-06-24T01:07:37;100746.00;;;17.84;100.00
28310;BME280;15571;50.974;13.936;2023-06-24T01:10:39;100756.56;;;17.86;100.00
28310;BME280;15571;50.974;13.936;2023-06-24T01:13:41;100755.66;;;17.87;100.00
28310;BME280;15571;50.974;13.936;2023-06-24T01:16:44;100757.41;;;17.86;100.00
28310;BME280;15571;50.974;13.936;2023-06-24T01:20:02;100754.81;;;17.85;100.00
28310;BME280;15571;50.974;13.936;2023-06-24T01:23:35;100765.53;;;17.80;100.00
28310;BME280;15571;50.974;13.936;2023-06-24T01:30:56;100758.94;;;17.97;100.00
28310;BME280;15571;50.974;13.936;2023-06-24T01:34:13;100744.88;;;17.93;100.00
28310;BME280;15571;50.974;13.936;2023-06-24T01:37:21;100762.06;;;17.78;100.00
28310;BME280;15571;50.974;13.936;2023-06-24T01:40:26;100759.47;;;17.77;100.00
28310;BME280;15571;50.974;13.936;2023-06-24T01:43:29;100760.25;;;17.79;100.00
28310;BME280;15571;50.974;13.936;2023-06-24T01:46:32;100759.34;;;17.80;100.00
28310;BME280;15571;50.974;13.936;2023-06-24T01:49:36;100758.69;;;17.73;100.00
28310;BME280;15571;50.974;13.936;2023-06-24T01:52:41;100765.63;;;17.77;100.00
28310;BME280;15571;50.974;13.936;2023-06-24T01:55:45;100770.97;;;17.74;100.00
28310;BME280;15571;50.974;13.936;2023-06-24T01:58:53;100765.63;;;17.77;100.00
28310;BME280;15571;50.974;13.936;2023-06-24T02:01:57;100766.31;;;17.84;100.00
28310;BME280;15571;50.974;13.936;2023-06-24T02:05:02;100762.97;;;17.77;100.00
28310;BME280;15571;50.974;13.936;2023-06-24T02:08:10;100762.00;;;17.81;100.00
28310;BME280;15571;50.974;13.936;2023-06-24T02:11:23;100769.81;;;17.86;100.00
28310;BME280;15571;50.974;13.936;2023-06-24T02:14:27;100766.28;;;17.85;100.00
28310;BME280;15571;50.974;13.936;2023-06-24T02:17:31;100758.69;;;18.06;100.00
28310;BME280;15571;50.974;13.936;2023-06-24T02:20:35;100754.78;;;17.86;100.00
28310;BME280;15571;50.974;13.936;2023-06-24T02:23:39;100753.03;;;17.85;100.00
28310;BME280;15571;50.974;13.936;2023-06-24T02:26:43;100751.28;;;17.84;100.00
28310;BME280;15571;50.974;13.936;2023-06-24T02:29:46;100756.44;;;17.91;100.00
28310;BME280;15571;50.974;13.936;2023-06-24T02:32:55;100756.50;;;17.87;100.00
28310;BME280;15571;50.974;13.936;2023-06-24T02:35:58;100758.19;;;17.92;100.00
28310;BME280;15571;50.974;13.936;2023-06-24T02:39:04;100758.06;;;17.95;100.00
28310;BME280;15571;50.974;13.936;2023-06-24T02:42:06;100756.31;;;17.95;100.00
28310;BME280;15571;50.974;13.936;2023-06-24T02:45:08;100761.41;;;18.03;100.00
28310;BME280;15571;50.974;13.936;2023-06-24T02:48:11;100765.78;;;18.06;100.00
28310;BME280;15571;50.974;13.936;2023-06-24T02:51:16;100767.81;;;17.94;100.00
28310;BME280;15571;50.974;13.936;2023-06-24T02:54:19;100770.38;;;17.99;100.00
28310;BME280;15571;50.974;13.936;2023-06-24T02:57:47;100771.94;;;18.06;100.00
28310;BME280;15571;50.974;13.936;2023-06-24T03:01:08;100777.16;;;18.09;100.00
28310;BME280;15571;50.974;13.936;2023-06-24T03:04:22;100768.44;;;18.04;100.00
28310;BME280;15571;50.974;13.936;2023-06-24T03:07:26;100769.19;;;18.09;100.00
28310;BME280;15571;50.974;13.936;2023-06-24T03:10:29;100773.47;;;18.15;100.00
28310;BME280;15571;50.974;13.936;2023-06-24T03:13:32;100769.06;;;18.14;100.00
28310;BME280;15571;50.974;13.936;2023-06-24T03:16:42;100771.59;;;18.18;100.00
28310;BME280;15571;50.974;13.936;2023-06-24T03:19:48;100771.50;;;18.22;100.00
28310;BME280;15571;50.974;13.936;2023-06-24T03:22:52;100780.25;;;18.24;100.00
28310;BME280;15571;50.974;13.936;2023-06-24T03:25:56;100770.56;;;18.24;100.00
28310;BME280;15571;50.974;13.936;2023-06-24T03:28:58;100774.88;;;18.27;100.00
28310;BME280;15571;50.974;13.936;2023-06-24T03:32:01;100772.88;;;18.35;100.00
28310;BME280;15571;50.974;13.936;2023-06-24T03:35:03;100770.06;;;18.41;100.00
28310;BME280;15571;50.974;13.936;2023-06-24T03:38:08;100770.22;;;18.35;100.00
28310;BME280;15571;50.974;13.936;2023-06-24T03:41:12;100776.44;;;18.34;100.00
28310;BME280;15571;50.974;13.936;2023-06-24T03:44:15;100779.09;;;18.34;100.00
28310;BME280;15571;50.974;13.936;2023-06-24T03:47:17;100795.63;;;18.42;100.00
28310;BME280;15571;50.974;13.936;2023-06-24T03:50:19;100795.59;;;18.44;100.00
28310;BME280;15571;50.974;13.936;2023-06-24T03:53:23;100802.59;;;18.46;100.00
28310;BME280;15571;50.974;13.936;2023-06-24T03:56:25;100806.97;;;18.47;100.00
28310;BME280;15571;50.974;13.936;2023-06-24T03:59:28;100811.47;;;18.45;100.00
28310;BME280;15571;50.974;13.936;2023-06-24T04:02:33;100808.09;;;18.40;100.00
28310;BME280;15571;50.974;13.936;2023-06-24T04:05:35;100803.38;;;18.50;100.00
28310;BME280;15571;50.974;13.936;2023-06-24T04:08:39;100814.84;;;18.50;100.00
28310;BME280;15571;50.974;13.936;2023-06-24T04:11:47;100818.00;;;18.33;100.00
28310;BME280;15571;50.974;13.936;2023-06-24T04:14:49;100816.16;;;18.35;100.00
28310;BME280;15571;50.974;13.936;2023-06-24T04:17:51;100833.09;;;18.30;100.00
28310;BME280;15571;50.974;13.936;2023-06-24T04:20:54;100831.38;;;18.29;100.00
28310;BME280;15571;50.974;13.936;2023-06-24T04:23:59;100832.84;;;18.39;100.00
28310;BME280;15571;50.974;13.936;2023-06-24T04:27:01;100839.97;;;18.37;100.00
28310;BME280;15571;50.974;13.936;2023-06-24T04:30:05;100841.13;;;18.27;100.00
28310;BME280;15571;50.974;13.936;2023-06-24T04:33:07;100841.91;;;18.32;100.00
28310;BME280;15571;50.974;13.936;2023-06-24T04:36:09;100840.94;;;18.33;100.00
28310;BME280;15571;50.974;13.936;2023-06-24T04:39:13;100846.09;;;18.39;100.00
28310;BME280;15571;50.974;13.936;2023-06-24T04:42:15;100856.84;;;18.33;100.00
28310;BME280;15571;50.974;13.936;2023-06-24T04:45:17;100861.09;;;18.40;100.00
28310;BME280;15571;50.974;13.936;2023-06-24T04:48:22;100858.56;;;18.35;100.00
28310;BME280;15571;50.974;13.936;2023-06-24T04:51:25;100863.13;;;18.30;100.00
28310;BME280;15571;50.974;13.936;2023-06-24T04:54:31;100859.75;;;18.24;100.00
28310;BME280;15571;50.974;13.936;2023-06-24T04:57:34;100860.78;;;18.19;100.00
28310;BME280;15571;50.974;13.936;2023-06-24T05:00:36;100860.44;;;18.32;100.00
28310;BME280;15571;50.974;13.936;2023-06-24T05:03:38;100858.31;;;18.45;100.00
28310;BME280;15571;50.974;13.936;2023-06-24T05:06:40;100859.00;;;18.51;100.00
28310;BME280;15571;50.974;13.936;2023-06-24T05:09:48;100868.22;;;18.38;100.00
28310;BME280;15571;50.974;13.936;2023-06-24T05:12:51;100864.84;;;18.31;100.00
28310;BME280;15571;50.974;13.936;2023-06-24T05:15:55;100883.28;;;18.36;100.00
28310;BME280;15571;50.974;13.936;2023-06-24T05:18:57;100874.09;;;18.48;100.00
28310;BME280;15571;50.974;13.936;2023-06-24T05:21:59;100870.53;;;18.50;100.00
28310;BME280;15571;50.974;13.936;2023-06-24T05:25:03;100873.59;;;18.35;100.00
28310;BME280;15571;50.974;13.936;2023-06-24T05:28:08;100880.31;;;18.48;100.00
28310;BME280;15571;50.974;13.936;2023-06-24T05:31:10;100875.66;;;18.57;100.00
28310;BME280;15571;50.974;13.936;2023-06-24T05:34:12;100874.81;;;18.55;100.00
28310;BME280;15571;50.974;13.936;2023-06-24T05:37:14;100874.56;;;18.64;100.00
28310;BME280;15571;50.974;13.936;2023-06-24T05:40:17;100867.44;;;18.66;100.00
28310;BME280;15571;50.974;13.936;2023-06-24T05:43:19;100862.81;;;18.73;100.00
28310;BME280;15571;50.974;13.936;2023-06-24T05:46:21;100871.81;;;18.67;100.00
28310;BME280;15571;50.974;13.936;2023-06-24T05:49:26;100872.88;;;18.91;100.00
28310;BME280;15571;50.974;13.936;2023-06-24T05:52:28;100870.56;;;18.80;100.00
28310;BME280;15571;50.974;13.936;2023-06-24T05:55:34;100869.94;;;18.71;100.00
28310;BME280;15571;50.974;13.936;2023-06-24T05:58:36;100876.09;;;18.71;100.00
28310;BME280;15571;50.974;13.936;2023-06-24T06:01:40;100867.50;;;18.63;100.00
28310;BME280;15571;50.974;13.936;2023-06-24T06:04:47;100868.91;;;18.76;100.00
28310;BME280;15571;50.974;13.936;2023-06-24T06:07:49;100875.34;;;18.99;100.00
28310;BME280;15571;50.974;13.936;2023-06-24T06:10:52;100876.28;;;18.96;100.00
28310;BME280;15571;50.974;13.936;2023-06-24T06:13:54;100881.44;;;19.01;100.00
28310;BME280;15571;50.974;13.936;2023-06-24T06:16:56;100887.00;;;18.93;100.00
28310;BME280;15571;50.974;13.936;2023-06-24T06:19:58;100883.44;;;18.94;100.00
28310;BME280;15571;50.974;13.936;2023-06-24T06:23:00;100881.06;;;18.83;100.00
28310;BME280;15571;50.974;13.936;2023-06-24T06:26:04;100887.91;;;18.91;100.00
28310;BME280;15571;50.974;13.936;2023-06-24T06:29:06;100883.69;;;18.85;100.00
28310;BME280;15571;50.974;13.936;2023-06-24T06:32:08;100886.91;;;18.96;100.00
28310;BME280;15571;50.974;13.936;2023-06-24T06:35:10;100891.84;;;19.09;100.00
28310;BME280;15571;50.974;13.936;2023-06-24T06:38:12;100880.00;;;18.89;100.00
28310;BME280;15571;50.974;13.936;2023-06-24T06:41:16;100887.91;;;18.91;100.00
28310;BME280;15571;50.974;13.936;2023-06-24T06:44:18;100888.56;;;18.69;100.00
28310;BME280;15571;50.974;13.936;2023-06-24T06:47:20;100890.56;;;18.91;100.00
28310;BME280;15571;50.974;13.936;2023-06-24T06:50:22;100894.00;;;18.96;100.00
28310;BME280;15571;50.974;13.936;2023-06-24T06:53:24;100890.50;;;18.95;100.00
28310;BME280;15571;50.974;13.936;2023-06-24T06:56:28;100896.28;;;19.08;100.00
28310;BME280;15571;50.974;13.936;2023-06-24T06:59:30;100896.19;;;19.11;100.00
28310;BME280;15571;50.974;13.936;2023-06-24T07:02:33;100898.63;;;18.88;100.00
28310;BME280;15571;50.974;13.936;2023-06-24T07:05:40;100905.38;;;19.00;100.00
28310;BME280;15571;50.974;13.936;2023-06-24T07:08:44;100898.44;;;18.95;100.00
28310;BME280;15571;50.974;13.936;2023-06-24T07:11:47;100907.41;;;18.90;100.00
28310;BME280;15571;50.974;13.936;2023-06-24T07:14:50;100905.84;;;18.82;100.00
28310;BME280;15571;50.974;13.936;2023-06-24T07:17:52;100903.25;;;18.81;100.00
28310;BME280;15571;50.974;13.936;2023-06-24T07:20:59;100908.50;;;18.82;100.00
28310;BME280;15571;50.974;13.936;2023-06-24T07:24:01;100915.81;;;18.74;100.00
28310;BME280;15571;50.974;13.936;2023-06-24T07:27:05;100908.75;;;18.73;100.00
28310;BME280;15571;50.974;13.936;2023-06-24T07:30:08;100919.84;;;18.88;100.00
28310;BME280;15571;50.974;13.936;2023-06-24T07:33:10;100917.03;;;18.94;100.00
28310;BME280;15571;50.974;13.936;2023-06-24T07:36:12;100922.06;;;19.05;100.00
28310;BME280;15571;50.974;13.936;2023-06-24T07:39:15;100924.00;;;18.98;100.00
28310;BME280;15571;50.974;13.936;2023-06-24T07:42:18;100925.31;;;18.81;100.00
28310;BME280;15571;50.974;13.936;2023-06-24T07:45:20;100934.03;;;18.87;100.00
28310;BME280;15571;50.974;13.936;2023-06-24T07:48:22;100930.47;;;18.88;100.00
28310;BME280;15571;50.974;13.936;2023-06-24T07:51:24;100924.09;;;18.95;100.00
28310;BME280;15571;50.974;13.936;2023-06-24T07:54:26;100930.88;;;18.72;100.00
28310;BME280;15571;50.974;13.936;2023-06-24T08:58:34;100929.28;;;20.38;100.00
28310;BME280;15571;50.974;13.936;2023-06-24T09:12:20;100942.63;;;20.62;100.00
28310;BME280;15571;50.974;13.936;2023-06-24T09:21:34;100935.56;;;20.36;100.00
28310;BME280;15571;50.974;13.936;2023-06-24T09:29:11;100942.25;;;20.48;100.00
28310;BME280;15571;50.974;13.936;2023-06-24T09:32:28;100935.50;;;20.88;100.00
28310;BME280;15571;50.974;13.936;2023-06-24T09:39:54;100945.94;;;20.94;100.00
28310;BME280;15571;50.974;13.936;2023-06-24T09:43:07;100937.56;;;20.81;100.00
28310;BME280;15571;50.974;13.936;2023-06-24T09:47:43;100937.38;;;20.86;100.00
28310;BME280;15571;50.974;13.936;2023-06-24T09:50:48;100935.59;;;21.10;100.00
28310;BME280;15571;50.974;13.936;2023-06-24T09:54:06;100925.78;;;21.11;100.00
28310;BME280;15571;50.974;13.936;2023-06-24T09:58:13;100933.78;;;21.57;100.00
28310;BME280;15571;50.974;13.936;2023-06-24T10:01:38;100931.81;;;21.62;100.00
28310;BME280;15571;50.974;13.936;2023-06-24T10:04:54;100920.63;;;21.52;100.00
28310;BME280;15571;50.974;13.936;2023-06-24T10:08:19;100922.13;;;21.13;100.00
28310;BME280;15571;50.974;13.936;2023-06-24T10:17:13;100915.53;;;21.46;100.00
28310;BME280;15571;50.974;13.936;2023-06-24T12:49:11;100824.34;;;22.84;100.00
28310;BME280;15571;50.974;13.936;2023-06-24T12:52:14;100834.28;;;22.61;100.00
28310;BME280;15571;50.974;13.936;2023-06-24T12:55:16;100833.56;;;22.58;100.00
28310;BME280;15571;50.974;13.936;2023-06-24T12:58:22;100830.16;;;22.73;100.00
28310;BME280;15571;50.974;13.936;2023-06-24T13:01:24;100829.59;;;22.85;100.00
28310;BME280;15571;50.974;13.936;2023-06-24T13:04:27;100840.19;;;22.68;100.00
28310;BME280;15571;50.974;13.936;2023-06-24T13:07:29;100828.09;;;22.61;100.00
28310;BME280;15571;50.974;13.936;2023-06-24T13:10:32;100828.50;;;22.51;100.00
28310;BME280;15571;50.974;13.936;2023-06-24T13:13:38;100819.41;;;22.56;100.00
28310;BME280;15571;50.974;13.936;2023-06-24T13:16:40;100818.00;;;22.67;100.00
28310;BME280;15571;50.974;13.936;2023-06-24T13:19:44;100822.38;;;22.88;100.00
28310;BME280;15571;50.974;13.936;2023-06-24T13:22:46;100824.34;;;22.84;100.00
28310;BME280;15571;50.974;13.936;2023-06-24T13:25:48;100812.63;;;22.87;100.00
28310;BME280;15571;50.974;13.936;2023-06-24T13:28:56;100816.41;;;22.82;100.00
28310;BME280;15571;50.974;13.936;2023-06-24T13:31:58;100818.91;;;22.85;100.00
28310;BME280;15571;50.974;13.936;2023-06-24T13:35:02;100811.97;;;23.00;100.00
28310;BME280;15571;50.974;13.936;2023-06-24T13:38:04;100809.03;;;23.07;100.00
28310;BME280;15571;50.974;13.936;2023-06-24T13:41:08;100816.66;;;23.14;100.00
28310;BME280;15571;50.974;13.936;2023-06-24T13:44:10;100807.44;;;23.22;100.00
28310;BME280;15571;50.974;13.936;2023-06-24T13:47:12;100809.00;;;23.26;100.00
28310;BME280;15571;50.974;13.936;2023-06-24T13:50:16;100812.41;;;23.10;100.00
28310;BME280;15571;50.974;13.936;2023-06-24T13:53:18;100808.09;;;23.44;98.79
28310;BME280;15571;50.974;13.936;2023-06-24T13:56:21;100800.41;;;23.56;100.00
28310;BME280;15571;50.974;13.936;2023-06-24T13:59:24;100804.34;;;23.49;100.00
28310;BME280;15571;50.974;13.936;2023-06-24T14:02:26;100797.25;;;23.47;100.00
28310;BME280;15571;50.974;13.936;2023-06-24T14:05:29;100803.25;;;23.70;100.00
28310;BME280;15571;50.974;13.936;2023-06-24T14:08:31;100792.72;;;23.67;98.04
28310;BME280;15571;50.974;13.936;2023-06-24T14:11:34;100794.72;;;23.62;93.42
28310;BME280;15571;50.974;13.936;2023-06-24T14:14:36;100794.59;;;23.65;96.41
28310;BME280;15571;50.974;13.936;2023-06-24T14:17:39;100798.38;;;23.78;99.73
28310;BME280;15571;50.974;13.936;2023-06-24T14:20:42;100787.69;;;23.61;95.77
28310;BME280;15571;50.974;13.936;2023-06-24T14:23:44;100789.09;;;23.68;97.38
28310;BME280;15571;50.974;13.936;2023-06-24T14:26:46;100786.88;;;23.76;97.38
28310;BME280;15571;50.974;13.936;2023-06-24T14:29:49;100770.34;;;23.86;100.00
28310;BME280;15571;50.974;13.936;2023-06-24T14:32:51;100771.75;;;23.93;100.00
28310;BME280;15571;50.974;13.936;2023-06-24T14:36:04;100780.50;;;23.79;97.91
28310;BME280;15571;50.974;13.936;2023-06-24T14:39:09;100757.31;;;23.97;100.00
28310;BME280;15571;50.974;13.936;2023-06-24T14:42:11;100766.59;;;24.07;100.00
28310;BME280;15571;50.974;13.936;2023-06-24T14:45:13;100765.47;;;24.12;96.66
28310;BME280;15571;50.974;13.936;2023-06-24T14:48:15;100759.66;;;24.03;95.31
28310;BME280;15571;50.974;13.936;2023-06-24T14:51:18;100759.81;;;24.00;94.16
28310;BME280;15571;50.974;13.936;2023-06-24T14:54:21;100757.13;;;24.18;94.75
28310;BME280;15571;50.974;13.936;2023-06-24T14:57:23;100753.81;;;24.13;94.24
28310;BME280;15571;50.974;13.936;2023-06-24T15:00:26;100748.91;;;24.05;94.78
28310;BME280;15571;50.974;13.936;2023-06-24T15:03:28;100765.78;;;24.05;89.93
28310;BME280;15571;50.974;13.936;2023-06-24T15:06:32;100750.25;;;23.96;87.22
28310;BME280;15571;50.974;13.936;2023-06-24T15:09:35;100756.84;;;24.06;88.34
28310;BME280;15571;50.974;13.936;2023-06-24T15:12:38;100739.06;;;24.05;88.37
28310;BME280;15571;50.974;13.936;2023-06-24T15:15:40;100731.38;;;23.99;90.09
28310;BME280;15571;50.974;13.936;2023-06-24T15:18:46;100724.22;;;24.00;89.22
28310;BME280;15571;50.974;13.936;2023-06-24T15:21:56;100725.38;;;23.94;89.46
28310;BME280;15571;50.974;13.936;2023-06-24T15:25:04;100719.13;;;24.11;91.68
28310;BME280;15571;50.974;13.936;2023-06-24T15:28:07;100721.72;;;24.13;89.55
28310;BME280;15571;50.974;13.936;2023-06-24T15:31:09;100728.41;;;24.21;87.97
28310;BME280;15571;50.974;13.936;2023-06-24T15:34:14;100740.72;;;24.24;88.46
28310;BME280;15571;50.974;13.936;2023-06-24T15:37:18;100717.44;;;24.26;88.77
28310;BME280;15571;50.974;13.936;2023-06-24T15:40:20;100708.22;;;24.32;86.34
28310;BME280;15571;50.974;13.936;2023-06-24T15:43:26;100705.94;;;24.24;84.31
28310;BME280;15571;50.974;13.936;2023-06-24T15:46:30;100715.72;;;24.25;85.87
28310;BME280;15571;50.974;13.936;2023-06-24T15:49:34;100707.16;;;24.34;77.57
28310;BME280;15571;50.974;13.936;2023-06-24T15:52:38;100720.97;;;24.27;72.22
28310;BME280;15571;50.974;13.936;2023-06-24T15:55:40;100715.44;;;24.14;75.76
28310;BME280;15571;50.974;13.936;2023-06-24T15:58:49;100709.91;;;24.17;73.28
28310;BME280;15571;50.974;13.936;2023-06-24T16:01:54;100708.34;;;24.13;76.21
28310;BME280;15571;50.974;13.936;2023-06-24T16:04:56;100710.25;;;24.27;74.08
28310;BME280;15571;50.974;13.936;2023-06-24T16:08:03;100709.56;;;24.23;75.43
28310;BME280;15571;50.974;13.936;2023-06-24T16:11:06;100708.09;;;24.17;75.02
28310;BME280;15571;50.974;13.936;2023-06-24T16:14:10;100708.72;;;24.22;75.75
28310;BME280;15571;50.974;13.936;2023-06-24T16:17:15;100715.19;;;24.18;73.85
28310;BME280;15571;50.974;13.936;2023-06-24T16:20:17;100705.34;;;24.19;74.47
28310;BME280;15571;50.974;13.936;2023-06-24T16:23:20;100701.97;;;24.15;76.53
28310;BME280;15571;50.974;13.936;2023-06-24T16:26:22;100693.09;;;24.15;77.76
28310;BME280;15571;50.974;13.936;2023-06-24T16:29:25;100696.03;;;24.26;80.95
28310;BME280;15571;50.974;13.936;2023-06-24T16:32:32;100689.66;;;24.29;81.71
28310;BME280;15571;50.974;13.936;2023-06-24T16:35:37;100691.72;;;24.39;77.83
28310;BME280;15571;50.974;13.936;2023-06-24T16:38:41;100690.59;;;24.44;79.54
28310;BME280;15571;50.974;13.936;2023-06-24T16:41:43;100690.97;;;24.37;79.55
28310;BME280;15571;50.974;13.936;2023-06-24T16:44:45;100687.50;;;24.35;81.68
28310;BME280;15571;50.974;13.936;2023-06-24T16:47:48;100688.53;;;24.33;82.64
28310;BME280;15571;50.974;13.936;2023-06-24T16:50:52;100698.28;;;24.50;82.41
28310;BME280;15571;50.974;13.936;2023-06-24T16:53:55;100693.44;;;24.40;82.15
28310;BME280;15571;50.974;13.936;2023-06-24T16:56:57;100690.34;;;24.32;83.06
28310;BME280;15571;50.974;13.936;2023-06-24T16:59:59;100688.44;;;24.34;86.25
28310;BME280;15571;50.974;13.936;2023-06-24T17:03:03;100693.13;;;24.47;88.28
28310;BME280;15571;50.974;13.936;2023-06-24T17:06:05;100689.56;;;24.46;82.32
28310;BME280;15571;50.974;13.936;2023-06-24T17:09:09;100693.19;;;24.29;80.85
28310;BME280;15571;50.974;13.936;2023-06-24T17:12:14;100696.03;;;24.26;84.80
28310;BME280;15571;50.974;13.936;2023-06-24T17:15:16;100702.75;;;24.33;83.31
28310;BME280;15571;50.974;13.936;2023-06-24T17:18:25;100693.47;;;24.24;81.38
28310;BME280;15571;50.974;13.936;2023-06-24T17:21:28;100688.19;;;24.23;82.60
28310;BME280;15571;50.974;13.936;2023-06-24T17:24:34;100693.63;;;24.37;82.07
28310;BME280;15571;50.974;13.936;2023-06-24T17:27:46;100690.19;;;24.35;82.32
28310;BME280;15571;50.974;13.936;2023-06-24T17:30:48;100687.31;;;24.22;81.26
28310;BME280;15571;50.974;13.936;2023-06-24T17:33:50;100696.44;;;24.18;82.96
28310;BME280;15571;50.974;13.936;2023-06-24T17:36:52;100687.66;;;24.16;83.37
28310;BME280;15571;50.974;13.936;2023-06-24T17:39:55;100691.97;;;24.19;85.25
28310;BME280;15571;50.974;13.936;2023-06-24T17:42:57;100691.63;;;24.25;85.44
28310;BME280;15571;50.974;13.936;2023-06-24T17:46:06;100692.56;;;24.24;86.53
28310;BME280;15571;50.974;13.936;2023-06-24T17:49:11;100695.94;;;24.28;88.05
28310;BME280;15571;50.974;13.936;2023-06-24T17:52:13;100698.28;;;24.18;88.18
28310;BME280;15571;50.974;13.936;2023-06-24T17:55:17;100685.78;;;24.34;88.29
28310;BME280;15571;50.974;13.936;2023-06-24T17:58:19;100685.94;;;24.31;90.20
28310;BME280;15571;50.974;13.936;2023-06-24T18:01:24;100686.97;;;24.29;92.10
28310;BME280;15571;50.974;13.936;2023-06-24T18:04:31;100683.78;;;24.22;92.38
28310;BME280;15571;50.974;13.936;2023-06-24T18:07:33;100693.09;;;24.15;92.76
28310;BME280;15571;50.974;13.936;2023-06-24T18:10:47;100689.56;;;24.14;91.76
28310;BME280;15571;50.974;13.936;2023-06-24T18:13:50;100690.75;;;24.08;89.65
28310;BME280;15571;50.974;13.936;2023-06-24T18:16:56;100689.91;;;23.90;92.41
28310;BME280;15571;50.974;13.936;2023-06-24T18:20:04;100687.34;;;23.89;92.06
28310;BME280;15571;50.974;13.936;2023-06-24T18:23:07;100681.19;;;23.87;93.73
28310;BME280;15571;50.974;13.936;2023-06-24T18:26:10;100685.16;;;23.80;92.44
28310;BME280;15571;50.974;13.936;2023-06-24T18:29:21;100679.75;;;23.63;93.12
28310;BME280;15571;50.974;13.936;2023-06-24T18:32:26;100682.50;;;23.62;94.41
28310;BME280;15571;50.974;13.936;2023-06-24T18:35:29;100675.50;;;23.59;95.25
28310;BME280;15571;50.974;13.936;2023-06-24T18:38:31;100675.91;;;23.52;97.31
28310;BME280;15571;50.974;13.936;2023-06-24T18:41:42;100678.75;;;23.49;98.54
28310;BME280;15571;50.974;13.936;2023-06-24T18:44:48;100667.44;;;23.43;98.71
28310;BME280;15571;50.974;13.936;2023-06-24T18:47:50;100680.19;;;23.38;100.00
28310;BME280;15571;50.974;13.936;2023-06-24T18:50:54;100677.50;;;23.38;100.00
28310;BME280;15571;50.974;13.936;2023-06-24T18:53:56;100685.59;;;23.37;100.00
28310;BME280;15571;50.974;13.936;2023-06-24T18:57:09;100676.81;;;23.35;100.00
28310;BME280;15571;50.974;13.936;2023-06-24T19:00:12;100680.75;;;23.45;100.00
28310;BME280;15571;50.974;13.936;2023-06-24T19:03:14;100679.25;;;23.39;100.00
28310;BME280;15571;50.974;13.936;2023-06-24T19:06:16;100676.88;;;23.33;100.00
28310;BME280;15571;50.974;13.936;2023-06-24T19:09:18;100677.66;;;23.35;100.00
28310;BME280;15571;50.974;13.936;2023-06-24T19:12:23;100678.38;;;23.21;100.00
28310;BME280;15571;50.974;13.936;2023-06-24T19:15:25;100680.66;;;23.29;100.00
28310;BME280;15571;50.974;13.936;2023-06-24T19:18:27;100680.97;;;23.23;100.00
28310;BME280;15571;50.974;13.936;2023-06-24T19:21:28;100677.97;;;23.11;100.00
28310;BME280;15571;50.974;13.936;2023-06-24T19:24:34;100685.19;;;22.92;100.00
28310;BME280;15571;50.974;13.936;2023-06-24T19:27:47;100680.66;;;22.75;100.00
28310;BME280;15571;50.974;13.936;2023-06-24T19:30:49;100678.06;;;22.73;100.00
28310;BME280;15571;50.974;13.936;2023-06-24T19:33:51;100684.72;;;22.64;100.00
28310;BME280;15571;50.974;13.936;2023-06-24T19:36:53;100678.81;;;22.58;100.00
28310;BME280;15571;50.974;13.936;2023-06-24T19:40:00;100681.41;;;22.59;100.00
28310;BME280;15571;50.974;13.936;2023-06-24T19:43:06;100688.59;;;22.38;100.00
28310;BME280;15571;50.974;13.936;2023-06-24T19:46:11;100687.44;;;22.24;100.00
28310;BME280;15571;50.974;13.936;2023-06-24T19:49:13;100692.56;;;22.10;100.00